createdAt,value
2018-08-24T00:01:54.377Z,22.80
2018-08-24T00:06:49.229Z,22.80
2018-08-24T00:11:43.574Z,22.70
2018-08-24T00:16:38.389Z,22.60
2018-08-24T00:21:33.397Z,22.60
2018-08-24T00:42:45.350Z,22.20
2018-08-24T00:47:40.867Z,22.20
2018-08-24T00:52:35.458Z,22.20
2018-08-24T00:57:29.927Z,22.20
2018-08-24T01:02:24.329Z,22.10
2018-08-24T01:07:18.727Z,22.10
2018-08-24T01:12:17.303Z,22.10
2018-08-24T01:17:16.752Z,22.00
2018-08-24T01:22:11.165Z,21.90
2018-08-24T01:27:07.628Z,21.90
2018-08-24T01:32:05.321Z,21.80
2018-08-24T01:36:59.679Z,21.90
2018-08-24T01:41:54.381Z,21.90
2018-08-24T01:46:48.575Z,21.90
2018-08-24T01:51:43.893Z,21.90
2018-08-24T01:56:38.274Z,21.90
2018-08-24T02:01:41.004Z,21.80
2018-08-24T02:06:36.033Z,21.70
2018-08-24T02:11:33.969Z,21.80
2018-08-24T02:16:33.398Z,22.00
2018-08-24T02:21:33.023Z,21.90
2018-08-24T02:26:27.448Z,21.80
2018-08-24T02:31:22.364Z,21.70
2018-08-24T02:36:17.619Z,21.60
2018-08-24T02:41:11.933Z,21.40
2018-08-24T02:46:06.704Z,21.40
2018-08-24T02:51:01.073Z,21.30
2018-08-24T02:55:56.050Z,21.20
2018-08-24T03:00:51.323Z,21.20
2018-08-24T03:05:46.528Z,21.10
2018-08-24T03:10:41.340Z,21.10
2018-08-24T03:15:35.904Z,21.10
2018-08-24T03:20:30.407Z,21.10
2018-08-24T03:25:24.892Z,21.10
2018-08-24T03:30:19.337Z,21.00
2018-08-24T03:35:13.757Z,21.00
2018-08-24T03:40:09.773Z,21.10
2018-08-24T03:45:04.891Z,21.20
2018-08-24T03:49:59.490Z,21.20
2018-08-24T03:54:54.714Z,21.20
2018-08-24T03:59:50.172Z,21.30
2018-08-24T04:04:45.180Z,21.30
2018-08-24T04:09:40.295Z,21.40
2018-08-24T04:14:34.814Z,21.40
2018-08-24T04:19:30.423Z,21.50
2018-08-24T04:24:24.959Z,21.50
2018-08-24T04:29:19.511Z,21.60
2018-08-24T04:34:14.597Z,21.60
2018-08-24T04:39:11.085Z,21.70
2018-08-24T04:44:06.830Z,21.80
2018-08-24T04:49:01.267Z,21.90
2018-08-24T04:53:56.539Z,21.90
2018-08-24T04:58:51.060Z,22.00
2018-08-24T05:03:46.335Z,22.00
2018-08-24T05:08:49.033Z,22.10
2018-08-24T05:13:43.614Z,22.10
2018-08-24T05:18:39.541Z,22.10
2018-08-24T05:23:35.300Z,22.10
2018-08-24T05:28:32.929Z,22.10
2018-08-24T05:33:29.224Z,22.20
2018-08-24T05:38:23.890Z,22.20
2018-08-24T05:43:18.824Z,22.30
2018-08-24T05:48:19.994Z,22.30
2018-08-24T05:53:14.676Z,22.40
2018-08-24T05:58:10.389Z,22.50
2018-08-24T06:03:06.457Z,22.60
2018-08-24T06:08:02.667Z,22.70
2018-08-24T06:12:57.493Z,22.80
2018-08-24T06:17:54.485Z,22.80
2018-08-24T06:22:48.715Z,23.00
2018-08-24T06:27:44.351Z,23.10
2018-08-24T06:32:40.622Z,23.30
2018-08-24T06:37:35.663Z,23.30
2018-08-24T06:42:30.337Z,23.40
2018-08-24T06:47:26.221Z,23.70
2018-08-24T06:52:23.193Z,24.20
2018-08-24T06:57:26.060Z,25.20
2018-08-24T07:02:22.010Z,26.50
2018-08-24T07:07:17.980Z,26.40
2018-08-24T07:12:13.833Z,26.50
2018-08-24T07:17:08.544Z,26.80
2018-08-24T07:22:10.932Z,26.60
2018-08-24T07:27:07.936Z,27.10
2018-08-24T07:32:06.545Z,29.30
2018-08-24T07:37:01.207Z,30.60
2018-08-24T07:41:56.206Z,29.50
2018-08-24T07:46:52.182Z,29.00
2018-08-24T07:51:46.552Z,28.30
2018-08-24T07:56:41.457Z,27.50
2018-08-24T08:01:36.872Z,27.40
2018-08-24T08:06:31.378Z,27.10
2018-08-24T08:11:26.153Z,27.70
2018-08-24T08:16:21.364Z,28.90
2018-08-24T08:21:16.096Z,29.50
2018-08-24T08:26:10.403Z,30.30
2018-08-24T08:31:06.305Z,31.00
2018-08-24T08:36:01.178Z,31.20
2018-08-24T08:40:56.520Z,31.90
2018-08-24T08:45:52.669Z,32.90
2018-08-24T08:50:50.801Z,35.30
2018-08-24T08:55:46.273Z,36.30
2018-08-24T09:00:41.102Z,35.20
2018-08-24T09:05:35.403Z,35.20
2018-08-24T09:10:29.990Z,33.00
2018-08-24T09:15:24.263Z,33.40
2018-08-24T09:20:24.319Z,36.10
2018-08-24T09:25:23.867Z,35.70
2018-08-24T09:30:19.036Z,35.70
2018-08-24T09:35:13.461Z,33.20
2018-08-24T09:40:10.477Z,31.60
2018-08-24T09:45:05.860Z,30.50
2018-08-24T09:50:09.158Z,30.90
2018-08-24T09:55:04.393Z,30.10
2018-08-24T10:00:00.111Z,29.70
2018-08-24T10:04:59.448Z,31.60
2018-08-24T10:09:54.039Z,30.90
2018-08-24T10:14:48.677Z,31.10
2018-08-24T10:19:43.028Z,30.10
2018-08-24T10:24:37.624Z,29.90
2018-08-24T10:29:42.641Z,29.70
2018-08-24T10:34:37.515Z,30.10
2018-08-24T10:39:32.063Z,30.30
2018-08-24T10:44:27.032Z,30.00
2018-08-24T10:49:21.461Z,29.30
2018-08-24T10:54:16.192Z,31.30
2018-08-24T10:59:10.704Z,32.30
2018-08-24T11:04:07.388Z,32.30
2018-08-24T11:09:02.467Z,33.50
2018-08-24T11:13:56.905Z,33.70
2018-08-24T11:18:51.167Z,35.90
2018-08-24T11:23:46.260Z,33.70
2018-08-24T11:28:41.687Z,32.80
2018-08-24T11:33:36.306Z,33.00
2018-08-24T11:38:31.303Z,31.90
2018-08-24T11:43:27.394Z,30.40
2018-08-24T11:48:22.488Z,29.80
2018-08-24T11:53:18.652Z,29.60
2018-08-24T11:58:13.013Z,30.30
2018-08-24T12:03:07.818Z,30.70
2018-08-24T12:08:05.184Z,30.60
2018-08-24T12:12:59.692Z,30.70
2018-08-24T12:17:54.513Z,30.00
2018-08-24T12:22:49.464Z,29.00
2018-08-24T12:27:43.905Z,28.30
2018-08-24T12:33:01.129Z,28.60
2018-08-24T12:38:04.996Z,29.10
2018-08-24T12:42:59.865Z,29.10
2018-08-24T12:47:54.929Z,29.10
2018-08-24T12:52:49.354Z,29.00
2018-08-24T12:57:43.872Z,29.00
2018-08-24T13:02:38.341Z,29.60
2018-08-24T13:07:32.876Z,30.10
2018-08-24T13:12:27.564Z,30.20
2018-08-24T13:17:22.018Z,29.90
2018-08-24T13:22:17.208Z,29.50
2018-08-24T13:27:11.514Z,29.10
2018-08-24T13:32:07.179Z,28.70
2018-08-24T13:37:01.485Z,29.00
2018-08-24T13:41:56.407Z,29.00
2018-08-24T13:46:50.840Z,29.00
2018-08-24T13:51:45.400Z,28.80
2018-08-24T13:56:39.976Z,28.80
2018-08-24T14:01:42.627Z,29.10
2018-08-24T14:06:37.295Z,29.30
2018-08-24T14:11:31.752Z,29.20
2018-08-24T14:16:26.084Z,28.90
2018-08-24T14:21:20.314Z,28.50
2018-08-24T14:26:15.404Z,27.90
2018-08-24T14:31:10.034Z,27.80
2018-08-24T14:36:05.262Z,27.40
2018-08-24T14:41:00.006Z,27.00
2018-08-24T14:45:55.224Z,26.50
2018-08-24T14:50:49.579Z,26.10
2018-08-24T14:55:44.131Z,25.90
2018-08-24T15:00:38.806Z,25.60
2018-08-24T15:05:33.393Z,25.50
2018-08-24T15:10:27.977Z,25.50
2018-08-24T15:15:22.349Z,25.30
2018-08-24T15:20:16.836Z,25.30
2018-08-24T15:25:11.089Z,25.50
2018-08-24T15:30:06.069Z,25.40
2018-08-24T15:35:00.596Z,25.10
2018-08-24T15:39:55.005Z,25.00
2018-08-24T15:44:49.504Z,24.90
2018-08-24T15:49:44.147Z,25.00
2018-08-24T15:54:38.842Z,24.90
2018-08-24T15:59:33.136Z,24.80
2018-08-24T16:04:34.603Z,24.60
2018-08-24T16:09:29.248Z,24.20
2018-08-24T16:14:23.733Z,23.90
2018-08-24T16:19:18.656Z,23.70
2018-08-24T16:24:15.006Z,23.60
2018-08-24T16:29:10.147Z,23.60
2018-08-24T16:34:06.498Z,23.50
2018-08-24T16:39:01.775Z,23.20
2018-08-24T16:43:56.287Z,23.00
2018-08-24T16:48:58.530Z,22.60
2018-08-24T16:53:53.871Z,22.20
2018-08-24T16:58:48.435Z,22.00
2018-08-24T17:03:42.893Z,21.70
2018-08-24T17:08:37.187Z,21.50
2018-08-24T17:13:38.596Z,21.50
2018-08-24T17:18:33.000Z,21.30
2018-08-24T17:23:27.509Z,21.20
2018-08-24T17:28:22.097Z,21.10
2018-08-24T17:33:17.449Z,21.10
2018-08-24T17:38:19.855Z,21.00
2018-08-24T17:43:21.749Z,21.10
2018-08-24T17:48:16.411Z,21.00
2018-08-24T17:53:10.885Z,20.90
2018-08-24T17:58:21.251Z,20.90
2018-08-24T18:03:39.304Z,20.80
2018-08-24T18:08:33.950Z,20.80
2018-08-24T18:13:28.512Z,20.70
2018-08-24T18:18:23.416Z,20.60
2018-08-24T18:23:18.753Z,20.60
2018-08-24T18:28:13.766Z,20.60
2018-08-24T18:33:08.371Z,20.50
2018-08-24T18:38:02.903Z,20.50
2018-08-24T18:42:58.304Z,20.40
2018-08-24T18:47:52.940Z,20.40
2018-08-24T18:52:47.772Z,20.50
2018-08-24T18:57:42.769Z,20.60
2018-08-24T19:02:37.161Z,20.50
2018-08-24T19:07:31.590Z,20.50
2018-08-24T19:12:40.557Z,20.40
2018-08-24T19:17:40.232Z,20.40
2018-08-24T19:22:34.600Z,20.20
2018-08-24T19:27:42.087Z,20.10
2018-08-24T19:32:37.180Z,20.00
2018-08-24T19:37:31.667Z,19.90
2018-08-24T19:42:26.865Z,19.80
2018-08-24T19:47:26.167Z,19.60
2018-08-24T19:52:20.502Z,19.60
2018-08-24T19:57:20.174Z,19.50
2018-08-24T20:02:14.361Z,19.40
2018-08-24T20:07:14.205Z,19.40
2018-08-24T20:12:08.668Z,19.30
2018-08-24T20:17:08.435Z,19.30
2018-08-24T20:22:19.061Z,19.30
2018-08-24T20:27:29.865Z,19.20
2018-08-24T20:32:24.253Z,19.10
2018-08-24T20:37:26.544Z,19.00
2018-08-24T20:42:20.977Z,19.00
2018-08-24T20:47:15.277Z,19.00
2018-08-24T20:52:09.881Z,18.90
2018-08-24T20:57:05.929Z,18.90
2018-08-24T21:02:00.468Z,18.90
2018-08-24T21:06:54.995Z,18.90
2018-08-24T21:11:50.331Z,18.90
2018-08-24T21:16:44.751Z,18.90
2018-08-24T21:21:39.217Z,18.90
2018-08-24T21:26:33.462Z,18.90
2018-08-24T21:31:28.437Z,18.90
2018-08-24T21:36:22.778Z,18.80
2018-08-24T21:41:24.462Z,18.80
2018-08-24T21:46:26.323Z,18.70
2018-08-24T21:51:20.714Z,18.80
2018-08-24T21:56:15.024Z,18.80
2018-08-24T22:01:09.834Z,18.90
2018-08-24T22:06:06.757Z,18.90
2018-08-24T22:11:01.934Z,19.00
2018-08-24T22:15:56.445Z,19.00
2018-08-24T22:20:50.968Z,18.90
2018-08-24T22:25:45.475Z,18.70
2018-08-24T22:30:40.613Z,18.70
2018-08-24T22:35:35.117Z,18.70
2018-08-24T22:40:30.020Z,18.80
2018-08-24T22:45:24.651Z,18.90
2018-08-24T22:50:19.262Z,18.90
2018-08-24T22:55:13.598Z,18.80
2018-08-24T23:00:08.098Z,18.80
2018-08-24T23:05:03.248Z,18.80
2018-08-24T23:09:58.793Z,18.70
2018-08-24T23:14:53.076Z,18.70
2018-08-24T23:19:47.614Z,18.60
2018-08-24T23:24:41.933Z,18.60
2018-08-24T23:29:36.715Z,18.70
2018-08-24T23:34:31.165Z,18.60
2018-08-24T23:39:25.671Z,18.60
2018-08-24T23:44:35.405Z,18.50
2018-08-24T23:49:30.009Z,18.50
2018-08-24T23:54:24.634Z,18.30
2018-08-24T23:59:19.073Z,18.30
